KBRO/BRO METAR and TAF weather

Enter ICAO airport designator
Station Type Date Time Source
KBRO METAR 2018/12/12 04:53 UTC NOAA

KBRO 120453Z 13004KT 10SM CLR 16/14 A3020 RMK AO2 SLP225 T01610139


Station Type Date Time Source
KBRO Decoded METAR 2018/12/12 04:53 UTC NOAA

BROWNSVILLE/SOUTH PADRE IS, TX, United States (KBRO) 25-54N 97-25W 5M
Dec 11, 2018 - 11:53 PM EST / 2018.12.12 0453 UTC
Wind: from the SE (130 degrees) at 5 MPH (4 KT):0
Visibility: 10 mile(s):0
Sky conditions: clear
Temperature: 61.0 F (16.1 C)
Dew Point: 57.0 F (13.9 C)
Relative Humidity: 86%
Pressure (altimeter): 30.2 in. Hg (1022 hPa)
ob: KBRO 120453Z 13004KT 10SM CLR 16/14 A3020 RMK AO2 SLP225 T01610139
cycle: 5

Station Type Date Time Source
KBRO TAF 2018/12/11 21:58 UTC NOAA

TAF
AMD KBRO 112058Z 1121/1218 15015G20KT P6SM FEW045
FM120000 16007KT P6SM SCT250
FM121200 16006KT P6SM BKN100
FM121500 17012KT P6SM OVC050


Example: see airport list